createdAt,value
2023-05-15T00:03:34.661Z,1.88
2023-05-15T00:07:39.194Z,2.60
2023-05-15T00:11:43.555Z,1.90
2023-05-15T00:15:46.692Z,2.10
2023-05-15T00:19:49.718Z,2.30
2023-05-15T00:23:54.062Z,2.20
2023-05-15T00:27:58.570Z,2.00
2023-05-15T00:32:01.625Z,2.10
2023-05-15T00:36:04.655Z,2.10
2023-05-15T00:40:10.930Z,1.95
2023-05-15T00:44:19.163Z,2.03
2023-05-15T00:48:23.577Z,2.00
2023-05-15T00:52:27.753Z,2.00
2023-05-15T00:56:31.891Z,2.03
2023-05-15T01:00:37.484Z,2.30
2023-05-15T01:04:40.654Z,2.28
2023-05-15T01:08:46.878Z,2.30
2023-05-15T01:12:54.334Z,2.28
2023-05-15T01:16:58.903Z,2.13
2023-05-15T01:21:21.543Z,2.45
2023-05-15T01:26:16.644Z,2.45
2023-05-15T01:30:25.299Z,2.45
2023-05-15T01:34:35.270Z,2.30
2023-05-15T01:38:40.559Z,2.50
2023-05-15T01:42:50.338Z,2.15
2023-05-15T01:46:58.963Z,2.13
2023-05-15T01:51:07.665Z,1.83
2023-05-15T01:55:13.194Z,2.00
2023-05-15T01:59:17.702Z,2.03
2023-05-15T02:03:22.511Z,2.13
2023-05-15T02:07:27.500Z,2.00
2023-05-15T02:11:30.768Z,2.00
2023-05-15T02:15:34.160Z,1.75
2023-05-15T02:19:38.614Z,2.15
2023-05-15T02:23:41.709Z,1.88
2023-05-15T02:27:52.730Z,1.80
2023-05-15T02:32:05.081Z,1.92
2023-05-15T02:36:12.449Z,1.80
2023-05-15T02:40:17.362Z,1.80
2023-05-15T02:44:21.826Z,2.00
2023-05-15T02:48:25.797Z,1.70
2023-05-15T02:52:30.203Z,1.45
2023-05-15T02:56:33.645Z,1.70
2023-05-15T03:00:36.744Z,1.75
2023-05-15T03:04:40.002Z,2.10
2023-05-15T03:08:44.476Z,2.05
2023-05-15T03:12:47.653Z,1.90
2023-05-15T03:16:51.044Z,1.80
2023-05-15T03:20:54.988Z,1.92
2023-05-15T03:25:01.827Z,1.98
2023-05-15T03:29:05.021Z,2.20
2023-05-15T03:33:08.539Z,2.00
2023-05-15T03:37:11.632Z,2.00
2023-05-15T03:41:16.001Z,1.90
2023-05-15T03:45:19.201Z,2.22
2023-05-15T03:49:24.159Z,2.03
2023-05-15T03:53:27.315Z,2.03
2023-05-15T03:57:33.018Z,2.13
2023-05-15T04:01:46.674Z,1.67
2023-05-15T04:05:58.634Z,1.90
2023-05-15T04:10:02.001Z,1.55
2023-05-15T04:14:06.503Z,1.70
2023-05-15T04:18:09.565Z,1.63
2023-05-15T04:22:12.716Z,1.35
2023-05-15T04:26:15.820Z,1.30
2023-05-15T04:30:20.735Z,1.42
2023-05-15T04:34:23.932Z,1.48
2023-05-15T04:38:26.932Z,1.40
2023-05-15T04:42:30.041Z,1.17
2023-05-15T04:46:37.447Z,1.10
2023-05-15T04:50:40.626Z,0.80
2023-05-15T04:54:43.660Z,0.80
2023-05-15T04:58:46.692Z,1.40
2023-05-15T05:02:51.585Z,1.70
2023-05-15T05:06:54.665Z,1.48
2023-05-15T05:10:58.371Z,1.70
2023-05-15T05:15:01.535Z,1.48
2023-05-15T05:19:07.180Z,1.55
2023-05-15T05:23:10.774Z,1.40
2023-05-15T05:27:13.843Z,1.55
2023-05-15T05:31:16.924Z,1.23
2023-05-15T05:35:21.891Z,1.20
2023-05-15T05:39:25.078Z,1.10
2023-05-15T05:43:28.481Z,0.70
2023-05-15T05:47:31.472Z,0.60
2023-05-15T05:51:36.992Z,0.40
2023-05-15T05:55:40.030Z,0.40
2023-05-15T05:59:43.171Z,0.38
2023-05-15T06:03:46.815Z,0.30
2023-05-15T06:07:51.513Z,0.30
2023-05-15T06:11:54.510Z,0.20
2023-05-15T06:15:57.706Z,0.20
2023-05-15T06:20:00.888Z,0.40
2023-05-15T06:24:05.474Z,0.32
2023-05-15T06:28:08.471Z,0.30
2023-05-15T06:32:11.482Z,0.38
2023-05-15T06:36:17.049Z,0.40
2023-05-15T06:40:22.355Z,0.50
2023-05-15T06:44:25.795Z,0.60
2023-05-15T06:48:28.939Z,0.57
2023-05-15T06:52:31.975Z,0.60
2023-05-15T06:56:36.450Z,0.40
2023-05-15T07:00:39.500Z,0.60
2023-05-15T07:04:42.571Z,0.60
2023-05-15T07:08:45.773Z,0.60
2023-05-15T07:12:50.152Z,0.50
2023-05-15T07:16:53.327Z,0.50
2023-05-15T07:20:56.452Z,0.52
2023-05-15T07:24:59.451Z,0.68
2023-05-15T07:29:04.251Z,0.60
2023-05-15T07:33:07.547Z,0.60
2023-05-15T07:37:10.986Z,0.50
2023-05-15T07:41:14.106Z,0.57
2023-05-15T07:45:18.667Z,0.60
2023-05-15T07:49:21.678Z,0.70
2023-05-15T07:53:24.660Z,0.60
2023-05-15T07:57:27.780Z,0.60
2023-05-15T08:01:32.894Z,0.80
2023-05-15T08:05:36.265Z,0.52
2023-05-15T08:09:39.310Z,0.70
2023-05-15T08:13:42.306Z,0.60
2023-05-15T08:17:46.898Z,0.52
2023-05-15T08:21:49.903Z,0.60
2023-05-15T08:25:52.992Z,0.93
2023-05-15T08:29:56.000Z,0.80
2023-05-15T08:34:00.421Z,0.90
2023-05-15T08:38:04.000Z,0.80
2023-05-15T08:42:11.648Z,0.77
2023-05-15T08:46:14.957Z,0.60
2023-05-15T08:50:20.492Z,0.70
2023-05-15T08:54:23.926Z,0.60
2023-05-15T08:58:28.763Z,0.55
2023-05-15T09:02:31.883Z,0.30
2023-05-15T09:06:37.099Z,0.30
2023-05-15T09:10:40.588Z,0.40
2023-05-15T09:14:43.657Z,0.70
2023-05-15T09:18:47.207Z,0.70
2023-05-15T09:22:51.655Z,0.47
2023-05-15T09:27:05.217Z,0.60
2023-05-15T09:31:09.356Z,0.65
2023-05-15T09:35:31.121Z,0.60
2023-05-15T09:39:42.065Z,1.48
2023-05-15T09:43:45.030Z,0.50
2023-05-15T09:47:48.309Z,0.60
2023-05-15T09:51:51.808Z,0.50
2023-05-15T09:55:56.869Z,0.35
2023-05-15T10:00:10.352Z,0.60
2023-05-15T10:04:15.367Z,0.60
2023-05-15T10:08:28.284Z,0.60
2023-05-15T10:12:33.127Z,0.70
2023-05-15T10:16:37.509Z,0.57
2023-05-15T10:20:40.932Z,0.50
2023-05-15T10:24:46.063Z,0.50
2023-05-15T10:28:52.093Z,0.40
2023-05-15T10:32:56.997Z,0.50
2023-05-15T10:37:01.540Z,0.60
2023-05-15T10:41:16.401Z,0.70
2023-05-15T10:45:21.465Z,0.50
2023-05-15T10:49:24.736Z,0.47
2023-05-15T10:53:27.835Z,0.55
2023-05-15T10:57:31.281Z,0.50
2023-05-15T11:01:37.205Z,0.60
2023-05-15T11:06:10.947Z,0.70
2023-05-15T11:10:37.866Z,0.68
2023-05-15T11:14:42.125Z,0.70
2023-05-15T11:18:47.684Z,0.50
2023-05-15T11:23:00.336Z,0.70
2023-05-15T11:27:04.790Z,0.60
2023-05-15T11:31:08.038Z,0.47
2023-05-15T11:35:13.509Z,0.80
2023-05-15T11:39:17.268Z,0.70
2023-05-15T11:43:22.559Z,0.40
2023-05-15T11:47:26.684Z,0.60
2023-05-15T11:51:31.718Z,0.60
2023-05-15T11:55:37.373Z,0.50
2023-05-15T11:59:40.591Z,0.50
2023-05-15T12:03:44.282Z,0.60
2023-05-15T12:07:48.972Z,0.38
2023-05-15T12:11:53.150Z,0.65
2023-05-15T12:15:56.955Z,0.50
2023-05-15T12:20:01.361Z,0.45
2023-05-15T12:24:08.101Z,0.50
2023-05-15T12:28:13.302Z,0.90
2023-05-15T12:32:16.644Z,0.40
2023-05-15T12:36:22.070Z,0.40
2023-05-15T12:40:26.913Z,0.50
2023-05-15T12:44:30.266Z,0.52
2023-05-15T12:48:33.899Z,0.50
2023-05-15T12:52:36.907Z,0.40
2023-05-15T12:56:41.727Z,0.50
2023-05-15T13:00:46.406Z,0.30
2023-05-15T13:04:49.630Z,0.32
2023-05-15T13:08:52.853Z,0.47
2023-05-15T13:12:59.007Z,0.40
2023-05-15T13:17:03.934Z,0.50
2023-05-15T13:21:07.038Z,0.38
2023-05-15T13:25:10.751Z,0.30
2023-05-15T13:29:15.312Z,0.40
2023-05-15T13:33:18.417Z,0.30
2023-05-15T13:37:21.417Z,0.50
2023-05-15T13:41:24.488Z,0.73
2023-05-15T13:45:28.960Z,1.45
2023-05-15T13:49:32.091Z,0.28
2023-05-15T13:53:35.170Z,0.40
2023-05-15T13:57:38.570Z,0.40
2023-05-15T14:01:43.369Z,1.15
2023-05-15T14:05:46.504Z,0.70
2023-05-15T14:09:49.713Z,0.55
2023-05-15T14:13:52.714Z,0.38
2023-05-15T14:17:57.131Z,0.50
2023-05-15T14:22:00.152Z,0.50
2023-05-15T14:26:03.706Z,0.60
2023-05-15T14:30:08.097Z,0.50
2023-05-15T14:34:14.124Z,0.55
2023-05-15T14:38:17.187Z,0.50
2023-05-15T14:42:21.151Z,0.50
2023-05-15T14:46:24.318Z,0.50
2023-05-15T14:50:29.037Z,1.15
2023-05-15T14:54:33.127Z,0.60
2023-05-15T14:58:36.403Z,0.50
2023-05-15T15:02:39.440Z,0.70
2023-05-15T15:06:44.301Z,0.50
2023-05-15T15:10:48.953Z,0.70
2023-05-15T15:14:55.185Z,0.50
2023-05-15T15:19:03.449Z,0.52
2023-05-15T15:23:07.959Z,0.60
2023-05-15T15:27:11.616Z,0.70
2023-05-15T15:31:15.499Z,0.50
2023-05-15T15:35:18.562Z,0.60
2023-05-15T15:39:23.433Z,0.60
2023-05-15T15:48:20.819Z,0.50
2023-05-15T15:52:23.907Z,0.70
2023-05-15T15:56:28.276Z,0.80
2023-05-15T16:00:31.454Z,0.70
2023-05-15T16:04:34.493Z,0.73
2023-05-15T16:08:37.574Z,0.90
2023-05-15T16:12:48.788Z,0.77
2023-05-15T16:16:58.604Z,0.80
2023-05-15T16:21:02.508Z,0.80
2023-05-15T16:25:07.184Z,0.90
2023-05-15T16:29:11.979Z,0.70
2023-05-15T16:33:15.021Z,0.80
2023-05-15T16:37:19.497Z,0.80
2023-05-15T16:41:26.399Z,0.80
2023-05-15T16:45:30.862Z,0.80
2023-05-15T16:49:33.854Z,0.73
2023-05-15T16:53:36.914Z,0.85
2023-05-15T16:57:39.976Z,0.70
2023-05-15T17:01:44.534Z,0.80
2023-05-15T17:05:47.626Z,0.80
2023-05-15T17:09:50.594Z,0.80
2023-05-15T17:13:53.581Z,0.88
2023-05-15T17:17:57.958Z,0.88
2023-05-15T17:22:00.953Z,0.93
2023-05-15T17:26:04.327Z,0.82
2023-05-15T17:30:08.937Z,0.95
2023-05-15T17:34:13.341Z,0.90
2023-05-15T17:38:16.422Z,0.90
2023-05-15T17:42:22.456Z,1.00
2023-05-15T17:46:26.668Z,0.90
2023-05-15T17:50:31.709Z,1.20
2023-05-15T17:54:35.259Z,0.90
2023-05-15T17:58:38.890Z,1.00
2023-05-15T18:02:42.557Z,1.10
2023-05-15T18:06:50.131Z,1.23
2023-05-15T18:10:53.317Z,1.10
2023-05-15T18:14:56.311Z,1.23
2023-05-15T18:18:59.522Z,0.90
2023-05-15T18:23:03.930Z,0.90
2023-05-15T18:27:07.169Z,1.02
2023-05-15T18:31:10.410Z,1.08
2023-05-15T18:35:13.686Z,1.05
2023-05-15T18:39:18.066Z,1.10
2023-05-15T18:43:21.517Z,1.00
2023-05-15T18:47:24.574Z,1.10
2023-05-15T18:51:27.831Z,1.38
2023-05-15T18:55:32.352Z,1.05
2023-05-15T18:59:35.625Z,1.30
2023-05-15T19:03:38.828Z,1.23
2023-05-15T19:07:42.336Z,1.20
2023-05-15T19:11:47.410Z,1.10
2023-05-15T19:15:53.872Z,1.40
2023-05-15T19:19:56.844Z,1.20
2023-05-15T19:23:59.902Z,1.27
2023-05-15T19:28:04.274Z,1.42
2023-05-15T19:32:08.540Z,1.50
2023-05-15T19:36:13.217Z,1.40
2023-05-15T19:40:16.636Z,1.30
2023-05-15T19:44:21.131Z,1.50
2023-05-15T19:48:24.199Z,1.30
2023-05-15T19:52:27.213Z,1.25
2023-05-15T19:56:30.334Z,1.42
2023-05-15T20:00:34.904Z,1.45
2023-05-15T20:04:38.743Z,1.42
2023-05-15T20:08:42.079Z,1.40
2023-05-15T20:12:46.119Z,1.50
2023-05-15T20:16:54.030Z,1.40
2023-05-15T20:20:58.484Z,1.40
2023-05-15T20:25:01.474Z,1.50
2023-05-15T20:29:04.559Z,1.52
2023-05-15T20:33:09.002Z,1.40
2023-05-15T20:37:12.860Z,1.40
2023-05-15T20:41:16.761Z,1.60
2023-05-15T20:45:20.229Z,1.60
2023-05-15T20:49:24.633Z,1.60
2023-05-15T20:53:28.582Z,1.20
2023-05-15T20:57:31.685Z,1.40
2023-05-15T21:01:34.818Z,1.60
2023-05-15T21:05:39.594Z,1.40
2023-05-15T21:09:42.639Z,1.48
2023-05-15T21:13:45.720Z,1.60
2023-05-15T21:17:48.781Z,1.48
2023-05-15T21:21:53.217Z,1.90
2023-05-15T21:25:56.358Z,1.80
2023-05-15T21:29:59.404Z,1.70
2023-05-15T21:34:02.464Z,1.50
2023-05-15T21:38:07.609Z,1.98
2023-05-15T21:42:11.032Z,1.65
2023-05-15T21:46:14.327Z,1.65
2023-05-15T21:50:17.542Z,2.00
2023-05-15T21:54:21.893Z,1.80
2023-05-15T21:58:24.965Z,1.85
2023-05-15T22:02:28.013Z,1.67
2023-05-15T22:06:31.781Z,1.70
2023-05-15T22:10:36.186Z,1.67
2023-05-15T22:14:46.937Z,1.88
2023-05-15T22:19:00.393Z,1.90
2023-05-15T22:23:03.483Z,1.73
2023-05-15T22:27:08.264Z,1.92
2023-05-15T22:31:11.335Z,1.70
2023-05-15T22:35:14.457Z,1.98
2023-05-15T22:39:17.824Z,2.05
2023-05-15T22:43:22.622Z,2.17
2023-05-15T22:47:26.061Z,1.65
2023-05-15T22:51:30.285Z,1.80
2023-05-15T22:55:33.768Z,1.90
2023-05-15T22:59:38.304Z,1.90
2023-05-15T23:03:41.479Z,1.75
2023-05-15T23:07:45.112Z,1.85
2023-05-15T23:11:48.136Z,1.50
2023-05-15T23:15:52.571Z,1.75
2023-05-15T23:19:55.723Z,1.38
2023-05-15T23:23:58.793Z,1.30
2023-05-15T23:28:01.842Z,1.55
2023-05-15T23:32:07.890Z,1.40
2023-05-15T23:36:10.980Z,1.60
2023-05-15T23:40:15.372Z,1.60
2023-05-15T23:44:19.631Z,1.25
2023-05-15T23:48:24.088Z,1.30
2023-05-15T23:52:27.303Z,1.42
2023-05-15T23:56:30.361Z,1.90
